createdAt,value
2023-05-15T00:02:39.985Z,11.82
2023-05-15T00:05:42.271Z,11.76
2023-05-15T00:08:44.847Z,11.84
2023-05-15T00:11:47.053Z,11.88
2023-05-15T00:14:49.269Z,11.89
2023-05-15T00:17:51.441Z,11.86
2023-05-15T00:20:53.673Z,11.78
2023-05-15T00:23:56.979Z,11.77
2023-05-15T00:27:00.120Z,11.81
2023-05-15T00:30:02.323Z,11.84
2023-05-15T00:33:04.529Z,11.83
2023-05-15T00:36:07.277Z,11.80
2023-05-15T00:39:09.574Z,11.77
2023-05-15T00:42:12.099Z,11.80
2023-05-15T00:45:15.027Z,11.82
2023-05-15T00:48:17.220Z,11.76
2023-05-15T00:51:19.442Z,11.83
2023-05-15T00:54:21.647Z,11.80
2023-05-15T00:57:24.307Z,11.80
2023-05-15T01:00:26.604Z,11.77
2023-05-15T01:03:29.106Z,11.91
2023-05-15T01:06:31.831Z,11.81
2023-05-15T01:09:34.558Z,11.87
2023-05-15T01:12:38.434Z,11.84
2023-05-15T01:15:41.255Z,11.91
2023-05-15T01:18:43.528Z,11.94
2023-05-15T01:21:57.856Z,11.84
2023-05-15T01:25:11.839Z,11.77
2023-05-15T01:28:19.985Z,11.77
2023-05-15T01:31:23.305Z,11.95
2023-05-15T01:34:32.059Z,11.91
2023-05-15T01:37:35.290Z,11.89
2023-05-15T01:40:37.810Z,11.79
2023-05-15T01:43:42.808Z,11.91
2023-05-15T01:46:46.731Z,11.84
2023-05-15T01:49:51.101Z,11.85
2023-05-15T01:52:56.885Z,11.77
2023-05-15T01:55:59.384Z,11.83
2023-05-15T01:59:03.042Z,11.79
2023-05-15T02:02:06.121Z,11.93
2023-05-15T02:05:09.061Z,11.95
2023-05-15T02:08:12.452Z,11.81
2023-05-15T02:11:15.386Z,11.77
2023-05-15T02:14:17.780Z,11.68
2023-05-15T02:17:21.547Z,11.63
2023-05-15T02:20:23.859Z,11.69
2023-05-15T02:23:26.108Z,11.70
2023-05-15T02:26:59.578Z,11.75
2023-05-15T02:30:13.785Z,11.71
2023-05-15T02:33:45.027Z,11.70
2023-05-15T02:36:48.674Z,11.69
2023-05-15T02:39:54.357Z,11.71
2023-05-15T02:42:57.189Z,11.77
2023-05-15T02:45:59.728Z,11.90
2023-05-15T02:49:02.302Z,11.85
2023-05-15T02:52:05.097Z,11.82
2023-05-15T02:55:07.962Z,11.81
2023-05-15T02:58:10.442Z,11.81
2023-05-15T03:01:12.716Z,11.87
2023-05-15T03:04:15.239Z,11.94
2023-05-15T03:07:17.450Z,12.01
2023-05-15T03:10:21.253Z,11.86
2023-05-15T03:13:23.516Z,11.83
2023-05-15T03:16:26.882Z,11.83
2023-05-15T03:19:29.075Z,11.81
2023-05-15T03:22:31.609Z,11.79
2023-05-15T03:25:33.801Z,11.90
2023-05-15T03:28:36.005Z,11.91
2023-05-15T03:31:38.206Z,11.85
2023-05-15T03:34:41.165Z,11.95
2023-05-15T03:37:43.763Z,11.94
2023-05-15T03:40:45.942Z,11.92
2023-05-15T03:43:48.169Z,11.98
2023-05-15T03:46:50.373Z,12.01
2023-05-15T03:49:52.598Z,12.02
2023-05-15T03:52:54.845Z,11.88
2023-05-15T03:55:57.055Z,11.95
2023-05-15T03:58:59.476Z,12.12
2023-05-15T04:02:05.521Z,12.43
2023-05-15T04:05:09.037Z,12.17
2023-05-15T04:08:12.512Z,12.20
2023-05-15T04:11:15.120Z,12.21
2023-05-15T04:14:17.284Z,12.27
2023-05-15T04:17:19.463Z,12.19
2023-05-15T04:20:23.621Z,12.22
2023-05-15T04:23:25.990Z,12.21
2023-05-15T04:26:28.392Z,12.36
2023-05-15T04:29:30.675Z,12.28
2023-05-15T04:32:33.987Z,12.28
2023-05-15T04:35:36.220Z,12.34
2023-05-15T04:38:38.439Z,12.26
2023-05-15T04:41:40.654Z,12.26
2023-05-15T04:44:42.976Z,12.36
2023-05-15T04:47:45.284Z,12.40
2023-05-15T04:50:47.572Z,12.28
2023-05-15T04:53:49.727Z,12.32
2023-05-15T04:56:51.874Z,12.42
2023-05-15T04:59:54.033Z,12.47
2023-05-15T05:02:56.270Z,12.48
2023-05-15T05:05:58.461Z,12.58
2023-05-15T05:09:00.621Z,12.77
2023-05-15T05:12:02.908Z,12.68
2023-05-15T05:15:05.616Z,12.67
2023-05-15T05:18:07.960Z,12.71
2023-05-15T05:21:10.797Z,12.65
2023-05-15T05:24:13.068Z,12.72
2023-05-15T05:27:15.323Z,12.68
2023-05-15T05:30:17.635Z,12.73
2023-05-15T05:33:20.068Z,12.61
2023-05-15T05:36:22.270Z,12.63
2023-05-15T05:39:24.497Z,12.53
2023-05-15T05:42:26.984Z,12.46
2023-05-15T05:45:29.646Z,12.43
2023-05-15T05:48:31.939Z,12.47
2023-05-15T05:51:37.053Z,12.57
2023-05-15T05:54:39.273Z,12.71
2023-05-15T05:57:41.588Z,12.62
2023-05-15T06:00:43.732Z,12.66
2023-05-15T06:03:46.756Z,12.62
2023-05-15T06:06:50.168Z,12.63
2023-05-15T06:09:52.458Z,12.62
2023-05-15T06:12:54.754Z,12.68
2023-05-15T06:15:56.926Z,12.76
2023-05-15T06:18:59.112Z,12.71
2023-05-15T06:22:01.390Z,12.62
2023-05-15T06:25:05.237Z,12.70
2023-05-15T06:28:07.532Z,12.83
2023-05-15T06:31:10.487Z,12.84
2023-05-15T06:34:12.741Z,12.85
2023-05-15T06:37:14.967Z,12.94
2023-05-15T06:40:17.159Z,13.06
2023-05-15T06:43:19.352Z,12.97
2023-05-15T06:46:21.722Z,13.11
2023-05-15T06:49:24.574Z,13.05
2023-05-15T06:52:26.922Z,12.86
2023-05-15T06:55:29.122Z,13.09
2023-05-15T06:58:31.287Z,13.29
2023-05-15T07:01:33.607Z,13.56
2023-05-15T07:04:36.148Z,13.75
2023-05-15T07:07:38.384Z,13.61
2023-05-15T07:10:40.557Z,13.68
2023-05-15T07:13:42.726Z,13.61
2023-05-15T07:16:47.153Z,13.71
2023-05-15T07:19:49.419Z,13.99
2023-05-15T07:22:56.369Z,14.10
2023-05-15T07:25:59.212Z,14.06
2023-05-15T07:29:01.345Z,14.50
2023-05-15T07:32:03.807Z,14.95
2023-05-15T07:35:06.314Z,15.16
2023-05-15T07:38:08.486Z,15.07
2023-05-15T07:41:10.651Z,15.43
2023-05-15T07:44:13.101Z,15.66
2023-05-15T07:47:15.782Z,15.95
2023-05-15T07:50:18.251Z,15.88
2023-05-15T07:53:20.428Z,15.75
2023-05-15T07:56:23.300Z,15.60
2023-05-15T07:59:25.704Z,15.35
2023-05-15T08:02:28.127Z,15.19
2023-05-15T08:05:30.463Z,15.26
2023-05-15T08:08:32.683Z,15.31
2023-05-15T08:11:35.620Z,15.14
2023-05-15T08:14:38.245Z,15.04
2023-05-15T08:17:41.073Z,14.98
2023-05-15T08:20:43.454Z,15.00
2023-05-15T08:23:45.633Z,15.03
2023-05-15T08:26:47.800Z,15.00
2023-05-15T08:29:50.175Z,15.30
2023-05-15T08:32:52.601Z,15.45
2023-05-15T08:35:54.893Z,15.71
2023-05-15T08:38:57.226Z,15.67
2023-05-15T08:42:15.482Z,15.69
2023-05-15T08:45:17.869Z,15.87
2023-05-15T08:48:25.310Z,15.94
2023-05-15T08:51:27.663Z,16.05
2023-05-15T08:54:30.112Z,16.11
2023-05-15T08:57:33.255Z,16.25
2023-05-15T09:00:36.073Z,16.43
2023-05-15T09:03:38.368Z,16.62
2023-05-15T09:06:41.404Z,16.79
2023-05-15T09:09:45.234Z,17.03
2023-05-15T09:12:47.467Z,16.33
2023-05-15T09:15:50.753Z,16.51
2023-05-15T09:18:53.922Z,16.73
2023-05-15T09:21:56.193Z,16.88
2023-05-15T09:24:58.346Z,17.00
2023-05-15T09:28:01.140Z,17.15
2023-05-15T09:31:04.860Z,17.26
2023-05-15T09:34:09.426Z,17.13
2023-05-15T09:37:27.687Z,17.36
2023-05-15T09:40:33.322Z,17.41
2023-05-15T09:43:37.607Z,17.53
2023-05-15T09:46:39.911Z,17.43
2023-05-15T09:49:45.441Z,17.46
2023-05-15T09:52:47.659Z,17.40
2023-05-15T09:55:50.401Z,17.24
2023-05-15T09:59:01.398Z,17.23
2023-05-15T10:02:03.724Z,17.10
2023-05-15T10:05:06.054Z,17.40
2023-05-15T10:08:08.348Z,16.97
2023-05-15T10:11:10.682Z,16.65
2023-05-15T10:14:14.049Z,16.41
2023-05-15T10:17:16.763Z,16.41
2023-05-15T10:20:26.729Z,16.45
2023-05-15T10:23:30.528Z,16.38
2023-05-15T10:26:36.307Z,16.36
2023-05-15T10:29:38.569Z,16.41
2023-05-15T10:32:42.035Z,16.27
2023-05-15T10:35:44.505Z,16.48
2023-05-15T10:38:48.288Z,16.49
2023-05-15T10:41:50.857Z,16.36
2023-05-15T10:44:54.029Z,16.08
2023-05-15T10:47:56.660Z,16.19
2023-05-15T10:51:01.399Z,16.43
2023-05-15T10:54:03.933Z,16.54
2023-05-15T10:57:06.806Z,16.68
2023-05-15T11:00:24.252Z,16.39
2023-05-15T11:03:47.983Z,16.52
2023-05-15T11:07:11.812Z,16.81
2023-05-15T11:10:29.291Z,16.63
2023-05-15T11:14:05.878Z,16.64
2023-05-15T11:17:12.438Z,16.62
2023-05-15T11:20:14.712Z,16.72
2023-05-15T11:23:21.720Z,16.73
2023-05-15T11:26:33.169Z,16.77
2023-05-15T11:29:35.488Z,16.64
2023-05-15T11:33:00.219Z,17.00
2023-05-15T11:36:05.344Z,17.36
2023-05-15T11:39:11.659Z,17.77
2023-05-15T11:42:14.162Z,18.04
2023-05-15T11:45:16.337Z,18.18
2023-05-15T11:48:18.825Z,18.15
2023-05-15T11:51:24.094Z,18.11
2023-05-15T11:54:26.769Z,18.26
2023-05-15T11:57:29.346Z,18.22
2023-05-15T12:00:31.983Z,18.06
2023-05-15T12:03:36.165Z,18.02
2023-05-15T12:06:38.641Z,17.83
2023-05-15T12:09:40.819Z,17.72
2023-05-15T12:12:44.325Z,17.97
2023-05-15T12:15:47.230Z,17.69
2023-05-15T12:18:49.966Z,17.56
2023-05-15T12:21:52.203Z,17.67
2023-05-15T12:24:58.736Z,17.80
2023-05-15T12:28:02.123Z,17.85
2023-05-15T12:31:04.561Z,18.11
2023-05-15T12:34:06.913Z,18.12
2023-05-15T12:37:14.784Z,17.89
2023-05-15T12:40:21.024Z,17.74
2023-05-15T12:43:26.836Z,17.94
2023-05-15T12:46:32.246Z,17.87
2023-05-15T12:49:37.395Z,18.18
2023-05-15T12:52:40.705Z,18.59
2023-05-15T12:55:45.392Z,18.63
2023-05-15T12:58:47.986Z,18.66
2023-05-15T13:01:50.597Z,18.54
2023-05-15T13:04:52.740Z,18.32
2023-05-15T13:07:55.046Z,17.91
2023-05-15T13:10:59.912Z,17.46
2023-05-15T13:14:09.129Z,17.57
2023-05-15T13:17:11.345Z,17.28
2023-05-15T13:20:13.571Z,17.40
2023-05-15T13:23:18.109Z,17.17
2023-05-15T13:26:20.792Z,17.08
2023-05-15T13:29:23.072Z,17.13
2023-05-15T13:32:25.312Z,17.02
2023-05-15T13:35:28.118Z,16.77
2023-05-15T13:38:30.589Z,16.75
2023-05-15T13:41:32.796Z,16.82
2023-05-15T13:44:37.524Z,16.86
2023-05-15T13:47:40.864Z,16.94
2023-05-15T13:50:45.569Z,17.21
2023-05-15T13:53:47.851Z,17.34
2023-05-15T13:56:50.132Z,17.47
2023-05-15T13:59:52.458Z,17.54
2023-05-15T14:02:54.655Z,17.80
2023-05-15T14:05:56.855Z,17.63
2023-05-15T14:08:59.008Z,17.45
2023-05-15T14:12:01.207Z,17.44
2023-05-15T14:15:03.586Z,17.69
2023-05-15T14:18:05.888Z,17.83
2023-05-15T14:21:08.174Z,17.85
2023-05-15T14:24:10.493Z,17.83
2023-05-15T14:27:12.692Z,17.69
2023-05-15T14:30:14.996Z,17.41
2023-05-15T14:33:17.180Z,17.10
2023-05-15T14:36:19.452Z,16.97
2023-05-15T14:39:21.604Z,16.75
2023-05-15T14:42:23.839Z,16.85
2023-05-15T14:45:26.962Z,16.58
2023-05-15T14:48:30.060Z,16.71
2023-05-15T14:51:32.354Z,16.77
2023-05-15T14:54:35.728Z,16.76
2023-05-15T14:57:38.619Z,16.87
2023-05-15T15:00:40.924Z,16.82
2023-05-15T15:03:43.280Z,16.86
2023-05-15T15:06:47.694Z,16.88
2023-05-15T15:09:49.928Z,17.01
2023-05-15T15:12:52.263Z,16.91
2023-05-15T15:15:54.472Z,16.89
2023-05-15T15:18:57.586Z,16.83
2023-05-15T15:21:59.987Z,16.65
2023-05-15T15:25:02.285Z,16.61
2023-05-15T15:28:04.641Z,16.56
2023-05-15T15:31:06.861Z,16.61
2023-05-15T15:34:10.175Z,16.59
2023-05-15T15:37:12.352Z,16.60
2023-05-15T15:40:14.602Z,16.76
2023-05-15T15:43:17.017Z,16.85
2023-05-15T15:46:19.280Z,16.92
2023-05-15T15:49:21.608Z,16.92
2023-05-15T15:52:23.854Z,17.10
2023-05-15T15:55:26.072Z,17.10
2023-05-15T15:58:28.968Z,17.11
2023-05-15T16:01:31.272Z,17.14
2023-05-15T16:04:34.394Z,16.85
2023-05-15T16:07:36.613Z,16.87
2023-05-15T16:10:39.212Z,16.78
2023-05-15T16:13:41.442Z,16.86
2023-05-15T16:16:43.644Z,16.94
2023-05-15T16:19:45.945Z,16.87
2023-05-15T16:22:48.106Z,17.01
2023-05-15T16:25:50.303Z,17.03
2023-05-15T16:28:52.558Z,16.94
2023-05-15T16:31:56.328Z,17.18
2023-05-15T16:34:58.521Z,17.12
2023-05-15T16:38:00.674Z,16.88
2023-05-15T16:41:03.433Z,17.02
2023-05-15T16:44:10.739Z,16.96
2023-05-15T16:47:12.956Z,17.13
2023-05-15T16:50:15.165Z,17.03
2023-05-15T16:53:17.676Z,17.07
2023-05-15T16:56:19.919Z,16.91
2023-05-15T16:59:22.454Z,17.01
2023-05-15T17:02:24.743Z,17.02
2023-05-15T17:05:27.347Z,16.88
2023-05-15T17:08:29.548Z,16.97
2023-05-15T17:11:31.732Z,16.90
2023-05-15T17:14:34.111Z,16.79
2023-05-15T17:17:36.334Z,16.88
2023-05-15T17:20:38.581Z,17.09
2023-05-15T17:23:40.912Z,17.09
2023-05-15T17:26:43.103Z,16.56
2023-05-15T17:29:45.905Z,16.27
2023-05-15T17:32:48.251Z,15.92
2023-05-15T17:35:50.864Z,15.83
2023-05-15T17:38:53.091Z,15.64
2023-05-15T17:41:55.310Z,15.76
2023-05-15T17:44:57.842Z,15.80
2023-05-15T17:48:03.725Z,15.66
2023-05-15T17:51:06.000Z,15.79
2023-05-15T17:54:08.155Z,15.87
2023-05-15T17:57:10.648Z,15.88
2023-05-15T18:00:13.457Z,15.89
2023-05-15T18:03:16.344Z,15.60
2023-05-15T18:06:18.601Z,15.40
2023-05-15T18:09:23.144Z,15.33
2023-05-15T18:12:26.258Z,15.21
2023-05-15T18:15:28.824Z,15.39
2023-05-15T18:18:31.148Z,15.39
2023-05-15T18:21:34.598Z,15.16
2023-05-15T18:24:38.566Z,15.09
2023-05-15T18:27:40.975Z,15.28
2023-05-15T18:30:45.418Z,15.17
2023-05-15T18:33:47.576Z,15.25
2023-05-15T18:36:52.084Z,14.99
2023-05-15T18:39:58.749Z,14.86
2023-05-15T18:43:01.033Z,14.91
2023-05-15T18:46:03.984Z,14.90
2023-05-15T18:49:06.237Z,14.94
2023-05-15T18:52:08.810Z,14.78
2023-05-15T18:55:12.563Z,14.71
2023-05-15T18:58:14.859Z,14.65
2023-05-15T19:01:17.170Z,14.80
2023-05-15T19:04:20.043Z,14.60
2023-05-15T19:07:22.249Z,14.51
2023-05-15T19:10:24.558Z,14.38
2023-05-15T19:13:29.867Z,14.36
2023-05-15T19:16:32.982Z,14.21
2023-05-15T19:19:35.284Z,14.13
2023-05-15T19:22:37.447Z,14.07
2023-05-15T19:25:39.633Z,13.98
2023-05-15T19:28:41.919Z,13.87
2023-05-15T19:31:45.651Z,13.81
2023-05-15T19:34:48.877Z,13.80
2023-05-15T19:37:51.078Z,13.80
2023-05-15T19:40:53.267Z,13.78
2023-05-15T19:43:55.533Z,13.71
2023-05-15T19:46:57.820Z,13.60
2023-05-15T19:50:00.003Z,13.56
2023-05-15T19:53:02.160Z,13.47
2023-05-15T19:56:04.708Z,13.36
2023-05-15T19:59:06.914Z,13.34
2023-05-15T20:02:10.562Z,13.28
2023-05-15T20:05:12.956Z,13.43
2023-05-15T20:08:17.191Z,13.39
2023-05-15T20:11:19.489Z,13.23
2023-05-15T20:14:21.697Z,13.30
2023-05-15T20:17:23.902Z,13.32
2023-05-15T20:20:27.029Z,13.34
2023-05-15T20:23:29.650Z,13.26
2023-05-15T20:26:31.885Z,13.38
2023-05-15T20:29:34.126Z,13.46
2023-05-15T20:32:36.908Z,13.48
2023-05-15T20:35:39.195Z,13.42
2023-05-15T20:38:41.628Z,13.37
2023-05-15T20:41:43.804Z,13.29
2023-05-15T20:44:46.249Z,13.10
2023-05-15T20:47:49.324Z,13.11
2023-05-15T20:50:53.101Z,13.17
2023-05-15T20:53:56.111Z,13.10
2023-05-15T20:56:58.274Z,13.12
2023-05-15T21:00:00.456Z,13.07
2023-05-15T21:03:02.934Z,12.99
2023-05-15T21:06:05.405Z,12.96
2023-05-15T21:09:07.641Z,12.91
2023-05-15T21:12:10.040Z,13.04
2023-05-15T21:15:12.360Z,13.14
2023-05-15T21:18:14.566Z,13.06
2023-05-15T21:21:16.869Z,12.93
2023-05-15T21:24:19.055Z,12.84
2023-05-15T21:27:21.246Z,12.89
2023-05-15T21:30:23.485Z,12.85
2023-05-15T21:33:25.875Z,12.82
2023-05-15T21:36:28.066Z,12.89
2023-05-15T21:39:30.253Z,12.87
2023-05-15T21:42:32.461Z,13.00
2023-05-15T21:45:34.648Z,13.00
2023-05-15T21:48:36.832Z,13.04
2023-05-15T21:51:38.981Z,12.99
2023-05-15T21:54:41.153Z,12.97
2023-05-15T21:57:43.369Z,13.12
2023-05-15T22:00:45.967Z,12.92
2023-05-15T22:03:48.430Z,12.94
2023-05-15T22:06:51.039Z,12.91
2023-05-15T22:09:53.254Z,12.82
2023-05-15T22:13:02.755Z,12.82
2023-05-15T22:16:05.292Z,12.77
2023-05-15T22:19:11.663Z,12.97
2023-05-15T22:22:20.848Z,12.91
2023-05-15T22:25:23.302Z,12.81
2023-05-15T22:28:25.618Z,12.73
2023-05-15T22:31:28.491Z,12.80
2023-05-15T22:34:30.719Z,12.89
2023-05-15T22:37:32.994Z,12.78
2023-05-15T22:40:35.173Z,12.69
2023-05-15T22:43:37.670Z,12.81
2023-05-15T22:46:40.215Z,12.93
2023-05-15T22:49:42.348Z,12.96
2023-05-15T22:52:44.488Z,12.78
2023-05-15T22:55:46.756Z,12.87
2023-05-15T22:58:49.360Z,12.85
2023-05-15T23:01:51.619Z,12.94
2023-05-15T23:04:53.928Z,12.77
2023-05-15T23:08:14.487Z,12.86
2023-05-15T23:11:16.668Z,12.80
2023-05-15T23:14:18.835Z,12.80
2023-05-15T23:17:21.021Z,12.59
2023-05-15T23:20:23.261Z,12.67
2023-05-15T23:23:25.586Z,12.74
2023-05-15T23:26:27.838Z,12.73
2023-05-15T23:29:30.087Z,12.72
2023-05-15T23:32:32.300Z,12.62
2023-05-15T23:35:34.517Z,12.64
2023-05-15T23:38:36.670Z,12.65
2023-05-15T23:41:38.845Z,12.67
2023-05-15T23:44:41.018Z,12.80
2023-05-15T23:47:43.278Z,12.76
2023-05-15T23:50:45.577Z,12.71
2023-05-15T23:53:49.168Z,12.68
2023-05-15T23:56:51.314Z,12.62
2023-05-15T23:59:53.471Z,12.63
